Time;durP1;ratioP1;P1;durP2;ratioP2;P2;SDS_P1;SDS_P2;PMS_P1;PMS_P2;Temp;Humidity;BMP_temperature;BMP_pressure;BME280_temperature;BME280_humidity;BME280_pressure;Samples;Min_cycle;Max_cycle;Signal;HPM_P1;HPM_P2
2023/03/13 00:00:59;;;;;;;;;1.00;1.00;;;;;14.36;77.64;100254.16;5013862;28;45430;-62
2023/03/13 00:03:25;;;;;;;;;3.00;1.00;;;;;14.45;77.62;100258.66;5017124;28;45466;-63
2023/03/13 00:05:58;;;;;;;;;3.33;1.67;;;;;14.40;77.46;100241.63;5018967;28;45302;-63
2023/03/13 00:08:24;;;;;;;;;1.00;1.00;;;;;14.45;77.70;100248.84;5014822;28;45449;-63
2023/03/13 00:10:50;;;;;;;;;4.00;2.00;;;;;14.49;77.56;100257.78;5014063;28;46275;-64
2023/03/13 00:13:15;;;;;;;;;3.00;2.00;;;;;14.51;77.48;100248.81;5018267;28;45460;-64
2023/03/13 00:15:40;;;;;;;;;3.00;3.00;;;;;14.54;77.70;100251.53;4995662;28;45659;-63
2023/03/13 00:18:06;;;;;;;;;3.33;1.67;;;;;14.55;77.43;100245.25;5018206;28;45537;-65
2023/03/13 00:20:31;;;;;;;;;2.00;2.00;;;;;14.57;77.20;100256.91;5017320;28;46130;-63
2023/03/13 00:22:56;;;;;;;;;2.33;1.33;;;;;14.58;77.14;100255.09;5016623;28;45540;-63
2023/03/13 00:25:22;;;;;;;;;4.00;2.00;;;;;14.54;77.24;100246.13;5016413;28;50279;-63
2023/03/13 00:27:48;;;;;;;;;2.00;2.00;;;;;14.58;77.09;100249.72;5014669;28;45518;-63
2023/03/13 00:30:13;;;;;;;;;1.00;0.00;;;;;14.60;77.09;100241.69;5012598;28;47136;-64
2023/03/13 00:32:44;;;;;;;;;3.00;2.00;;;;;14.57;76.92;100235.41;5016662;28;46618;-64
2023/03/13 00:35:10;;;;;;;;;1.00;1.00;;;;;14.61;76.81;100236.31;5012542;28;45439;-64
2023/03/13 00:37:36;;;;;;;;;1.33;1.33;;;;;14.60;77.14;100231.88;5014619;28;45675;-64
2023/03/13 00:40:03;;;;;;;;;2.33;2.33;;;;;14.63;76.74;100228.28;5014847;28;47100;-64
2023/03/13 00:42:28;;;;;;;;;3.67;2.00;;;;;14.65;76.79;100230.06;5014464;28;45363;-64
2023/03/13 00:44:53;;;;;;;;;2.00;0.00;;;;;14.68;76.75;100219.34;5014164;28;45300;-65
2023/03/13 00:47:19;;;;;;;;;1.67;1.00;;;;;14.65;76.65;100218.41;5019585;28;45416;-63
2023/03/13 00:49:44;;;;;;;;;5.67;2.00;;;;;14.66;76.43;100218.41;5013544;28;45391;-64
2023/03/13 00:52:09;;;;;;;;;3.67;2.00;;;;;14.67;76.41;100216.63;5015033;28;50081;-64
2023/03/13 00:54:35;;;;;;;;;3.00;3.00;;;;;14.67;76.60;100222.00;5018274;28;45347;-63
2023/03/13 00:57:00;;;;;;;;;1.33;1.33;;;;;14.63;76.67;100209.44;5013747;28;45534;-63
2023/03/13 00:59:25;;;;;;;;;2.00;2.00;;;;;14.64;76.54;100230.97;5019356;28;46206;-64
2023/03/13 01:01:51;;;;;;;;;1.00;1.00;;;;;14.65;76.75;100222.00;5013798;28;45347;-64
2023/03/13 01:04:17;;;;;;;;;2.67;2.00;;;;;14.68;76.36;100222.03;5013673;28;45471;-64
2023/03/13 01:06:42;;;;;;;;;1.00;1.00;;;;;14.64;76.38;100222.00;5014148;28;45424;-64
2023/03/13 01:09:12;;;;;;;;;2.00;2.00;;;;;14.67;76.12;100225.59;5018919;28;51685;-64
2023/03/13 01:11:40;;;;;;;;;2.00;2.00;;;;;14.65;76.33;100211.25;5015979;28;45549;-63
2023/03/13 01:14:08;;;;;;;;;2.00;2.00;;;;;14.66;76.56;100202.28;5021934;28;45352;-63
2023/03/13 01:16:35;;;;;;;;;3.33;0.67;;;;;14.67;76.29;100192.44;5015573;28;45394;-63
2023/03/13 01:19:04;;;;;;;;;2.67;2.33;;;;;14.66;75.79;100180.75;5017446;28;45904;-63
2023/03/13 01:21:30;;;;;;;;;3.33;3.00;;;;;14.61;75.48;100165.53;5013341;28;45678;-62
2023/03/13 01:23:56;;;;;;;;;2.33;2.33;;;;;14.65;75.37;100170.94;5013349;28;45389;-62
2023/03/13 01:26:22;;;;;;;;;5.00;3.00;;;;;14.64;74.75;100173.63;5018841;28;45394;-63
2023/03/13 01:28:48;;;;;;;;;3.33;3.33;;;;;14.38;74.76;100129.63;5013190;28;45957;-63
2023/03/13 01:31:17;;;;;;;;;2.33;2.00;;;;;14.58;74.92;100147.56;5013190;28;45459;-63
2023/03/13 01:33:44;;;;;;;;;4.00;3.00;;;;;14.65;74.96;100162.88;5011183;28;45679;-63
2023/03/13 01:36:10;;;;;;;;;3.00;3.00;;;;;14.64;74.62;100150.31;5016823;28;45553;-64
2023/03/13 01:38:37;;;;;;;;;4.00;2.67;;;;;14.61;74.72;100150.31;5013218;28;46317;-64
2023/03/13 01:41:04;;;;;;;;;6.00;4.00;;;;;14.63;74.54;100158.38;5017906;28;45410;-63
2023/03/13 01:43:32;;;;;;;;;3.00;3.00;;;;;14.62;74.51;100157.47;5012903;28;45396;-63
2023/03/13 01:46:06;;;;;;;;;4.00;3.00;;;;;14.58;74.22;100158.31;5013500;28;46553;-63
2023/03/13 01:48:54;;;;;;;;;2.33;2.33;;;;;14.57;74.55;100170.88;5011347;28;45691;-64
2023/03/13 01:51:26;;;;;;;;;6.33;3.00;;;;;14.58;74.74;100158.31;5007097;28;45509;-63
2023/03/13 01:54:17;;;;;;;;;6.00;3.00;;;;;14.60;74.22;100145.84;5013113;28;45459;-63
2023/03/13 01:57:03;;;;;;;;;2.00;2.00;;;;;14.61;74.23;100138.66;5020883;28;45565;-64
2023/03/13 01:59:42;;;;;;;;;4.00;4.00;;;;;14.59;73.80;100133.28;5011006;28;45510;-63
2023/03/13 02:02:08;;;;;;;;;4.00;4.00;;;;;14.54;73.71;100113.53;5013535;28;45520;-63
2023/03/13 02:04:38;;;;;;;;;5.67;3.00;;;;;14.55;73.91;100116.22;5016934;28;45461;-65
2023/03/13 02:07:09;;;;;;;;;4.33;3.67;;;;;14.57;73.79;100129.66;5018447;28;45476;-63
2023/03/13 02:09:40;;;;;;;;;4.00;4.00;;;;;14.55;74.09;100128.75;5016031;28;47205;-65
2023/03/13 02:12:09;;;;;;;;;4.33;4.33;;;;;14.56;74.00;100126.06;5022221;28;45499;-64
2023/03/13 02:14:37;;;;;;;;;4.00;2.67;;;;;14.55;73.78;100123.38;5016249;28;45415;-64
2023/03/13 02:17:04;;;;;;;;;3.67;2.00;;;;;14.50;73.74;100120.72;5016915;28;46253;-63
2023/03/13 02:19:32;;;;;;;;;5.33;4.00;;;;;14.56;73.24;100123.38;5017390;28;45673;-62
2023/03/13 02:22:15;;;;;;;;;4.33;3.00;;;;;14.55;73.33;100126.97;5016024;28;45448;-62
2023/03/13 02:24:58;;;;;;;;;4.67;4.67;;;;;14.56;73.54;100120.69;5012884;28;45463;-64
2023/03/13 02:27:24;;;;;;;;;7.00;5.33;;;;;14.53;73.14;100109.03;5015615;28;46159;-64
2023/03/13 02:29:50;;;;;;;;;3.00;3.00;;;;;14.56;73.48;100117.13;5018588;28;46197;-63
2023/03/13 02:32:16;;;;;;;;;7.00;4.00;;;;;14.58;73.33;100115.31;5016543;28;45395;-64
2023/03/13 02:34:46;;;;;;;;;5.00;4.67;;;;;14.59;73.30;100094.72;5016207;28;45521;-63
2023/03/13 02:37:13;;;;;;;;;6.00;4.33;;;;;14.57;72.74;100086.66;5016548;28;45577;-62
2023/03/13 02:39:44;;;;;;;;;2.00;2.00;;;;;14.60;72.59;100084.00;5016301;28;46090;-63
2023/03/13 02:42:11;;;;;;;;;9.67;4.00;;;;;14.63;72.64;100083.09;5015806;28;45458;-64
2023/03/13 02:44:40;;;;;;;;;5.00;3.00;;;;;14.60;72.65;100081.31;5015191;28;45379;-63
2023/03/13 02:47:08;;;;;;;;;6.33;4.00;;;;;14.35;72.41;100040.97;5015682;28;45379;-63
2023/03/13 02:49:34;;;;;;;;;7.00;4.00;;;;;14.66;72.60;100097.41;5015333;28;46078;-62
2023/03/13 02:52:11;;;;;;;;;6.00;4.67;;;;;14.68;72.67;100095.66;5015470;28;46201;-62
2023/03/13 02:54:39;;;;;;;;;5.67;4.00;;;;;14.67;72.49;100076.81;5014987;28;45470;-64
2023/03/13 02:57:05;;;;;;;;;3.67;3.00;;;;;14.67;72.37;100079.53;5015214;28;45388;-64
2023/03/13 02:59:31;;;;;;;;;4.00;4.00;;;;;14.66;72.58;100067.84;4993433;28;46967;-64
2023/03/13 03:01:56;;;;;;;;;2.67;2.33;;;;;14.69;72.08;100072.34;5018129;28;45454;-63
2023/03/13 03:04:23;;;;;;;;;4.33;4.33;;;;;14.70;72.00;100066.97;4998510;28;45489;-62
2023/03/13 03:06:50;;;;;;;;;3.00;3.00;;;;;14.70;72.08;100066.03;5014050;28;45747;-62
2023/03/13 03:09:16;;;;;;;;;4.00;3.00;;;;;14.68;72.24;100058.00;5014614;28;45575;-63
2023/03/13 03:11:41;;;;;;;;;6.00;4.33;;;;;14.69;71.71;100058.88;5013976;28;45661;-63
2023/03/13 03:14:09;;;;;;;;;6.00;3.33;;;;;14.70;71.94;100057.97;5017414;28;45574;-62
2023/03/13 03:16:34;;;;;;;;;3.67;3.33;;;;;14.71;71.88;100063.34;5021340;28;45386;-63
2023/03/13 03:19:00;;;;;;;;;6.00;4.00;;;;;14.69;71.77;100058.88;5013958;28;45762;-62
2023/03/13 03:21:25;;;;;;;;;5.00;3.00;;;;;14.72;71.79;100050.81;5016628;28;45236;-62
2023/03/13 03:23:51;;;;;;;;;3.33;3.33;;;;;14.72;71.72;100058.88;5016397;28;45297;-62
2023/03/13 03:26:16;;;;;;;;;4.33;4.00;;;;;14.72;71.60;100062.47;5015100;28;45710;-63
2023/03/13 03:28:42;;;;;;;;;4.00;2.00;;;;;14.75;71.59;100056.19;5014150;28;45496;-63
2023/03/13 03:31:10;;;;;;;;;5.00;3.00;;;;;14.73;71.44;100063.34;5015923;28;45510;-64
2023/03/13 03:33:36;;;;;;;;;6.33;5.67;;;;;14.42;71.54;100008.69;5014367;28;45313;-63
2023/03/13 03:36:08;;;;;;;;;4.67;2.00;;;;;14.73;71.39;100061.59;5015379;28;45730;-63
2023/03/13 03:38:34;;;;;;;;;8.00;4.00;;;;;14.67;71.50;100050.81;5019283;28;45883;-63
2023/03/13 03:41:00;;;;;;;;;5.00;3.00;;;;;14.77;71.20;100064.28;5016964;28;45520;-62
2023/03/13 03:43:25;;;;;;;;;3.33;3.33;;;;;14.79;71.45;100065.16;5014259;28;45610;-63
2023/03/13 03:45:50;;;;;;;;;7.67;4.00;;;;;14.78;71.25;100061.53;5015894;28;45541;-63
2023/03/13 03:48:16;;;;;;;;;3.33;3.00;;;;;14.73;71.16;100050.81;5014231;28;46436;-63
2023/03/13 03:50:42;;;;;;;;;6.00;4.67;;;;;14.78;71.12;100064.22;5012856;28;45553;-64
2023/03/13 03:53:08;;;;;;;;;4.33;4.00;;;;;14.73;71.75;100060.66;5021718;28;45516;-62
2023/03/13 03:55:33;;;;;;;;;5.67;4.67;;;;;14.80;71.29;100062.47;5014307;28;45471;-63
2023/03/13 03:57:59;;;;;;;;;4.33;4.00;;;;;14.81;71.36;100066.91;5012667;28;46092;-63
2023/03/13 04:00:25;;;;;;;;;12.00;5.00;;;;;14.81;71.15;100058.84;5023275;28;45449;-62
2023/03/13 04:02:50;;;;;;;;;4.00;4.00;;;;;14.79;70.90;100055.28;5014924;28;45403;-63
2023/03/13 04:05:16;;;;;;;;;5.00;4.00;;;;;14.80;70.70;100049.03;5014440;28;45383;-62
2023/03/13 04:07:41;;;;;;;;;5.67;4.33;;;;;14.81;70.44;100041.84;5014526;28;45700;-62
2023/03/13 04:10:07;;;;;;;;;5.33;4.00;;;;;14.80;70.31;100051.72;5019049;28;45579;-62
2023/03/13 04:12:32;;;;;;;;;2.33;2.00;;;;;14.82;70.41;100060.66;5014212;28;45290;-63
2023/03/13 04:14:58;;;;;;;;;7.67;5.00;;;;;14.78;70.67;100045.41;5014667;28;45387;-64
2023/03/13 04:17:23;;;;;;;;;6.00;5.00;;;;;14.80;70.36;100064.22;5014501;28;53700;-64
2023/03/13 04:19:48;;;;;;;;;4.33;4.00;;;;;14.85;70.53;100057.06;5019714;28;45652;-64
2023/03/13 04:22:14;;;;;;;;;4.00;3.00;;;;;14.87;70.28;100048.09;5012916;28;45422;-64
2023/03/13 04:24:39;;;;;;;;;8.33;4.67;;;;;14.90;70.41;100052.59;5020577;28;45310;-64
2023/03/13 04:27:05;;;;;;;;;6.00;4.33;;;;;14.92;70.17;100045.41;5018085;28;46394;-62
2023/03/13 04:29:32;;;;;;;;;5.33;5.00;;;;;14.91;69.98;100039.13;5013987;28;45575;-63
2023/03/13 04:31:57;;;;;;;;;3.67;3.67;;;;;14.85;70.15;100036.44;5015086;28;45379;-63
2023/03/13 04:34:22;;;;;;;;;4.33;4.33;;;;;14.86;70.19;100042.72;5012311;28;45707;-63
2023/03/13 04:36:48;;;;;;;;;8.33;5.00;;;;;14.89;70.47;100040.91;5011056;28;53008;-63
2023/03/13 04:39:13;;;;;;;;;5.67;4.33;;;;;14.90;70.01;100040.03;5014141;28;45331;-63
2023/03/13 04:41:38;;;;;;;;;4.67;3.67;;;;;14.88;70.01;100047.19;5010522;28;45510;-63
2023/03/13 04:44:04;;;;;;;;;5.67;5.00;;;;;14.88;70.59;100049.91;5014208;28;45419;-63
2023/03/13 04:46:29;;;;;;;;;3.00;3.00;;;;;14.88;70.54;100057.03;5015950;28;45400;-63
2023/03/13 04:48:54;;;;;;;;;6.67;5.33;;;;;14.87;70.44;100044.53;5011587;28;45522;-63
2023/03/13 04:51:20;;;;;;;;;4.33;3.67;;;;;14.85;70.68;100049.91;5012386;28;45615;-65
2023/03/13 04:53:45;;;;;;;;;5.00;4.67;;;;;14.84;70.77;100042.72;5016580;28;45566;-64
2023/03/13 04:56:18;;;;;;;;;4.00;4.00;;;;;14.86;70.68;100050.78;4989416;28;47108;-64
2023/03/13 04:58:43;;;;;;;;;9.00;6.00;;;;;14.83;70.48;100050.78;5012599;28;45475;-64
2023/03/13 05:01:08;;;;;;;;;4.67;4.67;;;;;14.84;70.74;100049.91;5014809;28;45643;-64
2023/03/13 05:03:34;;;;;;;;;3.00;3.00;;;;;14.72;70.72;100042.75;5010161;28;45616;-64
2023/03/13 05:05:59;;;;;;;;;7.00;6.67;;;;;14.80;70.60;100053.47;5010862;28;45478;-64
2023/03/13 05:08:24;;;;;;;;;6.00;4.33;;;;;14.76;70.81;100044.53;5010839;28;54926;-64
2023/03/13 05:10:50;;;;;;;;;6.00;5.33;;;;;14.75;70.90;100048.13;5011850;28;45495;-64
2023/03/13 05:13:16;;;;;;;;;5.67;5.00;;;;;14.75;70.93;100037.38;5012995;28;45313;-64
2023/03/13 05:15:41;;;;;;;;;6.67;6.00;;;;;14.79;71.00;100036.47;4972798;28;1128689;-63
2023/03/13 05:18:06;;;;;;;;;7.33;4.33;;;;;14.78;70.75;100023.91;5015577;28;45318;-64
2023/03/13 05:20:32;;;;;;;;;8.00;7.00;;;;;14.79;71.02;100033.78;5014360;28;45531;-64
2023/03/13 05:22:57;;;;;;;;;7.00;7.00;;;;;14.77;70.86;100024.81;5014631;28;45394;-63
2023/03/13 05:25:22;;;;;;;;;8.00;7.00;;;;;14.80;70.83;100038.25;5016031;28;46396;-64
2023/03/13 05:27:48;;;;;;;;;8.00;7.00;;;;;14.78;71.06;100026.59;5011845;28;59799;-63
2023/03/13 05:30:13;;;;;;;;;5.00;5.00;;;;;14.79;70.97;100024.81;5017721;28;46798;-63
2023/03/13 05:32:38;;;;;;;;;4.00;3.00;;;;;14.80;70.78;100019.44;5013164;28;45413;-65
2023/03/13 05:35:04;;;;;;;;;5.00;5.00;;;;;14.80;70.82;100014.06;5012131;28;49422;-64
2023/03/13 05:37:29;;;;;;;;;8.00;8.00;;;;;14.76;70.10;100012.25;5017586;28;45368;-63
2023/03/13 05:39:54;;;;;;;;;8.00;7.00;;;;;14.78;70.79;100021.22;5019453;28;45361;-64
2023/03/13 05:42:20;;;;;;;;;10.67;5.00;;;;;14.80;70.65;100021.22;4999093;28;45456;-64
2023/03/13 05:44:45;;;;;;;;;4.33;4.33;;;;;14.76;70.40;100036.47;5018639;28;46149;-64
2023/03/13 05:47:10;;;;;;;;;4.00;4.00;;;;;14.73;70.53;100025.72;5017432;28;45300;-64
2023/03/13 05:49:36;;;;;;;;;6.33;5.33;;;;;14.75;70.43;100021.25;5023897;28;46016;-64
2023/03/13 05:52:01;;;;;;;;;7.67;6.00;;;;;14.59;70.72;99992.56;5019788;28;45443;-64
2023/03/13 05:54:26;;;;;;;;;5.00;5.00;;;;;14.69;70.84;100000.63;5016480;28;45509;-64
2023/03/13 05:56:52;;;;;;;;;6.33;6.33;;;;;14.70;70.83;100013.19;5002019;28;45438;-64
2023/03/13 05:59:17;;;;;;;;;5.00;5.00;;;;;14.71;71.16;100004.19;5030096;28;46353;-63
2023/03/13 06:01:42;;;;;;;;;7.00;4.00;;;;;14.71;70.62;100001.50;5022530;28;45386;-64
2023/03/13 06:04:08;;;;;;;;;7.00;5.33;;;;;14.71;71.15;100004.19;5017832;28;46546;-63
2023/03/13 06:06:33;;;;;;;;;4.67;4.67;;;;;14.70;71.03;99997.06;5014937;28;45538;-63
2023/03/13 06:08:58;;;;;;;;;3.33;3.00;;;;;14.42;70.92;99947.81;5021276;28;45515;-64
2023/03/13 06:11:24;;;;;;;;;9.33;5.00;;;;;14.69;71.10;99992.56;5016479;28;45438;-64
2023/03/13 06:13:54;;;;;;;;;7.33;4.00;;;;;14.66;71.22;99979.13;5015803;28;46607;-63
2023/03/13 06:16:19;;;;;;;;;7.00;7.00;;;;;14.67;71.73;99988.09;5016386;28;45525;-64
2023/03/13 06:18:45;;;;;;;;;5.33;5.00;;;;;14.55;71.56;99971.06;5017244;28;45435;-64
2023/03/13 06:21:10;;;;;;;;;3.67;3.67;;;;;14.65;72.05;99981.81;5001780;28;45308;-62
2023/03/13 06:23:36;;;;;;;;;4.33;3.00;;;;;14.61;71.78;100005.13;5017234;28;45755;-64
2023/03/13 06:26:01;;;;;;;;;7.00;5.00;;;;;14.57;72.04;99985.41;5021534;28;45474;-63
2023/03/13 06:28:27;;;;;;;;;9.00;4.67;;;;;14.54;72.28;99965.69;5003130;28;45421;-65
2023/03/13 06:30:52;;;;;;;;;5.00;3.67;;;;;14.40;72.37;99949.59;5015942;28;45508;-63
2023/03/13 06:33:18;;;;;;;;;6.33;4.00;;;;;14.53;72.25;99993.47;5012833;28;45534;-63
2023/03/13 06:35:43;;;;;;;;;5.00;5.00;;;;;14.50;72.62;99978.25;5015179;28;45668;-63
2023/03/13 06:38:09;;;;;;;;;4.00;4.00;;;;;14.51;72.56;99984.50;5016479;28;45507;-62
2023/03/13 06:40:35;;;;;;;;;6.00;6.00;;;;;14.49;72.82;99973.75;5013031;28;45598;-64
2023/03/13 06:43:01;;;;;;;;;6.00;5.00;;;;;14.48;72.59;99979.13;5010840;28;46042;-63
2023/03/13 06:45:26;;;;;;;;;5.67;4.00;;;;;14.49;72.63;99967.50;5029120;28;45288;-64
2023/03/13 06:47:51;;;;;;;;;6.00;4.00;;;;;14.42;72.94;99963.94;5035427;28;45009;-64
2023/03/13 06:50:18;;;;;;;;;9.67;6.67;;;;;14.45;73.27;99961.25;5032088;28;45446;-63
2023/03/13 06:52:43;;;;;;;;;6.67;5.00;;;;;14.46;73.38;99954.94;5031341;28;46287;-62
2023/03/13 06:55:09;;;;;;;;;8.67;6.00;;;;;14.43;73.56;99943.31;5032294;28;45169;-62
2023/03/13 06:57:34;;;;;;;;;6.33;5.33;;;;;14.46;73.50;99946.88;5032751;28;45156;-65
2023/03/13 07:00:00;;;;;;;;;7.00;5.00;;;;;14.45;73.71;99945.13;5014634;28;45160;-64
2023/03/13 07:02:25;;;;;;;;;4.33;3.33;;;;;14.45;73.75;99950.50;5032197;28;46096;-64
2023/03/13 07:04:50;;;;;;;;;7.00;7.00;;;;;14.43;73.29;99941.50;5037818;28;45044;-63
2023/03/13 07:07:16;;;;;;;;;5.33;5.00;;;;;14.45;73.42;99947.81;5032347;28;45063;-63
2023/03/13 07:09:41;;;;;;;;;5.33;4.00;;;;;14.46;73.27;99941.50;5031220;28;45218;-63
2023/03/13 07:12:07;;;;;;;;;5.00;5.00;;;;;14.49;73.23;99944.19;5032122;28;45963;-63
2023/03/13 07:14:32;;;;;;;;;6.33;6.33;;;;;14.22;73.22;99893.19;4985403;28;45779;-63
2023/03/13 07:16:58;;;;;;;;;6.00;3.33;;;;;14.50;72.94;99929.88;5015563;28;45327;-63
2023/03/13 07:19:26;;;;;;;;;8.33;8.33;;;;;14.53;72.96;99935.22;5024617;28;45508;-63
2023/03/13 07:21:51;;;;;;;;;9.33;7.33;;;;;14.50;72.80;99931.63;5019129;28;45511;-64
2023/03/13 07:24:17;;;;;;;;;15.00;6.00;;;;;14.54;72.73;99928.94;5024371;28;45379;-64
2023/03/13 07:26:43;;;;;;;;;9.33;5.33;;;;;14.59;72.55;99936.13;5016599;28;45499;-65
2023/03/13 07:29:08;;;;;;;;;16.00;10.00;;;;;14.61;72.52;99932.53;5015940;28;45436;-64
2023/03/13 07:31:34;;;;;;;;;8.00;8.00;;;;;14.57;72.56;99933.44;5011931;28;46137;-64
2023/03/13 07:34:00;;;;;;;;;6.33;5.33;;;;;14.55;72.50;99911.94;5017499;28;45506;-63
2023/03/13 07:36:25;;;;;;;;;12.00;10.33;;;;;14.65;72.53;99926.28;5010534;28;45438;-64
2023/03/13 07:38:51;;;;;;;;;8.33;7.33;;;;;14.68;72.30;99928.03;5015360;28;45479;-64
2023/03/13 07:41:18;;;;;;;;;8.33;7.33;;;;;14.72;72.53;99919.97;5015334;28;45492;-64
2023/03/13 07:43:44;;;;;;;;;6.67;6.00;;;;;14.76;72.08;99920.84;5015031;28;45470;-64
2023/03/13 07:46:17;;;;;;;;;9.67;9.67;;;;;14.79;72.25;99920.81;5015093;28;45597;-64
2023/03/13 07:48:43;;;;;;;;;5.33;4.33;;;;;14.78;71.70;99902.88;5010461;28;45729;-66
2023/03/13 07:51:17;;;;;;;;;5.00;5.00;;;;;14.83;72.06;99908.25;5016533;28;45710;-65
2023/03/13 07:53:43;;;;;;;;;8.67;8.67;;;;;14.85;72.27;99915.44;5012278;28;46013;-66
2023/03/13 07:56:12;;;;;;;;;7.33;7.33;;;;;14.85;73.03;99896.59;5010677;28;45451;-67
2023/03/13 07:58:39;;;;;;;;;10.67;7.00;;;;;14.60;72.71;99849.22;5026614;28;47045;-67
2023/03/13 08:01:25;;;;;;;;;8.33;5.00;;;;;14.93;72.51;99901.94;5014227;28;46265;-66
2023/03/13 08:03:53;;;;;;;;;6.33;5.33;;;;;14.90;72.52;99891.22;5013820;28;45493;-66
2023/03/13 08:06:24;;;;;;;;;9.00;8.00;;;;;14.92;72.58;99892.97;5010596;28;45535;-66
2023/03/13 08:08:50;;;;;;;;;7.33;6.00;;;;;14.87;72.16;99880.47;5010262;28;45475;-65
2023/03/13 08:11:18;;;;;;;;;6.00;3.33;;;;;14.92;72.08;99889.41;5021980;28;45486;-64
2023/03/13 08:13:44;;;;;;;;;6.00;5.00;;;;;14.80;71.99;99881.38;5019045;28;45389;-65
2023/03/13 08:16:16;;;;;;;;;5.67;4.00;;;;;14.86;72.13;99884.94;5000883;28;45718;-66
2023/03/13 08:18:44;;;;;;;;;7.00;7.00;;;;;14.86;72.11;99897.50;5019100;28;45590;-65
2023/03/13 08:21:15;;;;;;;;;5.33;5.33;;;;;14.86;72.02;99895.69;5030049;28;45362;-65
2023/03/13 08:23:41;;;;;;;;;5.33;4.67;;;;;14.53;71.86;99837.56;5010936;28;45388;-66
2023/03/13 08:26:11;;;;;;;;;5.67;3.33;;;;;14.82;72.37;99869.72;5016758;28;45399;-64
2023/03/13 08:28:37;;;;;;;;;6.33;6.00;;;;;14.85;71.97;99869.72;5012829;28;45518;-66
2023/03/13 08:31:15;;;;;;;;;4.00;4.00;;;;;14.40;71.93;99788.34;5013928;28;46073;-65
2023/03/13 08:33:45;;;;;;;;;7.00;5.33;;;;;14.89;71.89;99874.16;5013983;28;45556;-65
2023/03/13 08:36:16;;;;;;;;;3.67;3.67;;;;;14.89;71.65;99876.84;5019545;28;45306;-65
2023/03/13 08:38:43;;;;;;;;;9.00;7.00;;;;;14.88;71.81;99861.63;5013544;28;45515;-64
2023/03/13 08:41:09;;;;;;;;;6.00;4.67;;;;;14.89;71.60;99868.78;5013763;28;45636;-65
2023/03/13 08:43:34;;;;;;;;;8.00;6.67;;;;;14.86;71.47;99854.47;5013057;28;45453;-66
2023/03/13 08:46:00;;;;;;;;;8.67;7.00;;;;;14.89;71.38;99852.63;5013816;28;45383;-66
2023/03/13 08:48:25;;;;;;;;;3.33;3.00;;;;;14.87;71.22;99854.47;5013947;28;45557;-65
2023/03/13 08:51:10;;;;;;;;;4.33;4.00;;;;;14.95;71.44;99849.03;5013774;28;45572;-65
2023/03/13 08:53:37;;;;;;;;;4.67;3.00;;;;;14.99;71.15;99841.84;5013558;28;45541;-63
2023/03/13 08:56:03;;;;;;;;;8.00;6.67;;;;;14.96;71.27;99844.53;5017847;28;45468;-65
2023/03/13 08:58:28;;;;;;;;;3.67;3.67;;;;;15.02;70.79;99849.91;5028121;28;45684;-64
2023/03/13 09:00:59;;;;;;;;;8.33;8.33;;;;;15.04;71.34;99845.41;5015168;28;46037;-65
2023/03/13 09:03:24;;;;;;;;;8.00;7.00;;;;;15.06;71.10;99838.19;5014561;28;45298;-65
2023/03/13 09:05:50;;;;;;;;;4.67;3.67;;;;;15.08;71.25;99833.72;5018007;28;45759;-66
2023/03/13 09:08:15;;;;;;;;;4.33;3.33;;;;;15.10;70.89;99835.47;5015917;28;45741;-64
2023/03/13 09:10:41;;;;;;;;;7.00;6.00;;;;;15.11;70.42;99821.13;4994519;28;46063;-63
2023/03/13 09:13:06;;;;;;;;;6.00;6.00;;;;;15.14;70.95;99827.41;5012444;28;45499;-68
2023/03/13 09:15:31;;;;;;;;;8.00;6.00;;;;;15.21;71.02;99821.06;5029590;28;45439;-67
2023/03/13 09:17:57;;;;;;;;;5.00;5.00;;;;;15.25;70.92;99822.84;5014206;28;45549;-67
2023/03/13 09:20:22;;;;;;;;;8.67;7.00;;;;;15.16;72.33;99788.78;5012257;28;48290;-66
2023/03/13 09:22:47;;;;;;;;;5.00;5.00;;;;;15.28;72.47;99806.66;5012197;28;45568;-66
2023/03/13 09:25:13;;;;;;;;;7.00;5.00;;;;;15.07;73.00;99756.59;5018630;28;45358;-66
2023/03/13 09:27:39;;;;;;;;;7.00;5.00;;;;;15.26;73.21;99798.59;5014209;28;45326;-63
2023/03/13 09:30:05;;;;;;;;;6.67;6.67;;;;;15.23;73.41;99776.22;5012457;28;47289;-64
2023/03/13 09:32:31;;;;;;;;;7.00;4.00;;;;;15.17;73.34;99785.22;5013743;28;45496;-64
2023/03/13 09:34:57;;;;;;;;;4.67;4.67;;;;;15.14;73.46;99777.16;5013530;28;45493;-65
2023/03/13 09:37:22;;;;;;;;;6.00;6.00;;;;;15.14;73.37;99782.53;5014728;28;45366;-65
2023/03/13 09:39:48;;;;;;;;;7.67;5.00;;;;;15.18;73.15;99778.03;5019715;28;45547;-65
2023/03/13 09:42:16;;;;;;;;;7.00;5.67;;;;;15.20;73.29;99777.13;5013747;28;45511;-65
2023/03/13 09:44:55;;;;;;;;;7.00;6.67;;;;;15.19;72.61;99774.44;5013420;28;45288;-66
2023/03/13 09:47:47;;;;;;;;;4.00;4.00;;;;;15.27;72.11;99773.47;5014179;28;45518;-67
2023/03/13 09:50:18;;;;;;;;;4.33;4.33;;;;;15.36;71.90;99775.19;5013581;28;45536;-67
2023/03/13 09:52:48;;;;;;;;;6.00;4.67;;;;;15.39;71.28;99764.41;5013059;28;45362;-67
2023/03/13 09:55:20;;;;;;;;;5.33;3.33;;;;;15.43;71.04;99766.16;4995954;28;45448;-66
2023/03/13 09:58:01;;;;;;;;;6.00;4.00;;;;;15.50;71.06;99758.91;4996183;28;45722;-66
2023/03/13 10:00:34;;;;;;;;;4.00;3.00;;;;;15.58;70.32;99751.66;5013753;28;46744;-66
2023/03/13 10:03:19;;;;;;;;;4.00;4.00;;;;;15.59;70.09;99750.75;5013259;28;45352;-66
2023/03/13 10:06:05;;;;;;;;;3.67;3.67;;;;;15.58;69.60;99751.66;5018894;28;45497;-67
2023/03/13 10:08:33;;;;;;;;;4.33;4.33;;;;;15.44;69.79;99722.19;5013296;28;45550;-70
2023/03/13 10:11:26;;;;;;;;;3.00;3.00;;;;;15.56;70.26;99739.09;5013578;28;45650;-66
2023/03/13 10:14:05;;;;;;;;;4.00;4.00;;;;;15.57;70.18;99744.47;5013284;28;45464;-67
2023/03/13 10:16:33;;;;;;;;;7.00;5.00;;;;;15.64;69.80;99745.28;5013433;28;45590;-67
2023/03/13 10:19:08;;;;;;;;;4.00;4.00;;;;;15.64;70.09;99746.22;5014530;28;45364;-67
2023/03/13 10:21:35;;;;;;;;;5.00;3.00;;;;;15.72;69.39;99743.41;5017401;28;46635;-68
2023/03/13 10:24:15;;;;;;;;;9.67;7.67;;;;;15.57;69.52;99704.09;5014987;28;45442;-66
2023/03/13 10:26:41;;;;;;;;;0.00;0.00;;;;;15.75;69.11;99721.84;5016637;28;45495;-65
2023/03/13 10:29:23;;;;;;;;;5.67;5.67;;;;;15.89;68.90;99728.91;5016926;28;45567;-67
2023/03/13 10:31:59;;;;;;;;;2.00;2.00;;;;;15.96;68.25;99719.84;5015459;28;45668;-67
2023/03/13 10:34:43;;;;;;;;;4.00;3.00;;;;;16.05;67.84;99711.63;5023227;28;45292;-67
2023/03/13 10:37:13;;;;;;;;;4.00;4.00;;;;;16.09;67.34;99688.25;5015332;28;45476;-68
2023/03/13 10:39:38;;;;;;;;;2.33;2.33;;;;;16.27;66.16;99701.47;5016238;28;45511;-70
2023/03/13 10:42:18;;;;;;;;;4.00;1.67;;;;;16.25;66.45;99680.84;5015973;28;46284;-68
2023/03/13 10:44:44;;;;;;;;;3.00;2.00;;;;;16.21;65.92;99677.31;5024625;28;45620;-69
2023/03/13 10:47:13;;;;;;;;;3.67;3.67;;;;;16.34;65.67;99711.25;5016354;28;45247;-69
2023/03/13 10:49:55;;;;;;;;;4.00;1.33;;;;;16.30;65.86;99700.53;4998213;28;45551;-68
2023/03/13 10:52:34;;;;;;;;;8.33;2.33;;;;;16.32;65.36;99690.66;5015759;28;46091;-68
2023/03/13 10:55:04;;;;;;;;;2.67;2.33;;;;;16.33;65.34;99687.94;5009649;28;45642;-67
2023/03/13 10:57:43;;;;;;;;;5.33;5.33;;;;;16.38;64.23;99683.34;5014382;28;45442;-68
2023/03/13 11:00:29;;;;;;;;;1.00;1.00;;;;;16.45;64.23;99675.16;5016218;28;45546;-68
2023/03/13 11:02:54;;;;;;;;;4.33;3.00;;;;;16.52;64.00;99682.25;5015521;28;46330;-66
2023/03/13 11:05:31;;;;;;;;;2.33;2.33;;;;;16.52;63.55;99674.16;5015973;28;45505;-68
2023/03/13 11:07:56;;;;;;;;;3.00;3.00;;;;;16.52;63.12;99664.25;5014321;28;45336;-68
2023/03/13 11:10:23;;;;;;;;;0.67;0.00;;;;;16.67;62.74;99671.22;5014215;28;45372;-69
2023/03/13 11:12:54;;;;;;;;;3.00;1.33;;;;;16.79;63.00;99666.56;5019403;28;46799;-69
2023/03/13 11:15:28;;;;;;;;;2.00;2.00;;;;;16.95;62.16;99665.41;5015026;28;45477;-64
2023/03/13 11:18:01;;;;;;;;;2.67;2.67;;;;;16.99;61.54;99656.34;5015809;28;45484;-70
2023/03/13 11:20:32;;;;;;;;;2.00;2.00;;;;;17.06;60.74;99673.31;5015536;28;45561;-68
2023/03/13 11:23:22;;;;;;;;;2.67;2.67;;;;;17.07;60.86;99661.59;5022691;28;45453;-70
2023/03/13 11:26:12;;;;;;;;;4.00;3.33;;;;;17.11;60.68;99687.63;5014573;28;45482;-68
2023/03/13 11:28:49;;;;;;;;;2.00;2.00;;;;;17.15;60.37;99672.28;5010123;28;45529;-68
2023/03/13 11:31:27;;;;;;;;;4.67;4.67;;;;;17.11;60.49;99649.84;5015667;28;45762;-69
2023/03/13 11:34:15;;;;;;;;;1.00;1.00;;;;;17.10;59.48;99658.84;5014722;28;45570;-69